Time;durP1;ratioP1;P1;durP2;ratioP2;P2;SDS_P1;SDS_P2;PMS_P1;PMS_P2;Temp;Humidity;BMP_temperature;BMP_pressure;BME280_temperature;BME280_humidity;BME280_pressure;Samples;Min_cycle;Max_cycle;Signal;HPM_P1;HPM_P2
2022/03/21 00:01:16;;;;;;;;;;;5.10;99.90;;;;;;5107574;28;20424;-75
2022/03/21 00:03:43;;;;;;;;;;;5.10;99.90;;;;;;5098975;28;19955;-76
2022/03/21 00:06:10;;;;;;;;;;;5.10;99.90;;;;;;5095102;28;20416;-76
2022/03/21 00:08:37;;;;;;;;;;;5.10;99.90;;;;;;5094652;28;20352;-75
2022/03/21 00:11:04;;;;;;;;;;;5.10;99.90;;;;;;5098243;28;20399;-75
2022/03/21 00:13:35;;;;;;;;;;;5.00;99.90;;;;;;5092623;28;19925;-75
2022/03/21 00:16:03;;;;;;;;;;;5.10;99.90;;;;;;5093511;28;19924;-76
2022/03/21 00:18:30;;;;;;;;;;;5.00;99.90;;;;;;5074541;28;20389;-75
2022/03/21 00:20:56;;;;;;;;;;;5.00;99.90;;;;;;5078218;28;19924;-75
2022/03/21 00:23:24;;;;;;;;;;;4.90;99.90;;;;;;5092880;28;20315;-75
2022/03/21 00:25:51;;;;;;;;;;;4.80;99.90;;;;;;5076828;28;19938;-75
2022/03/21 00:28:18;;;;;;;;;;;4.70;99.90;;;;;;5094174;28;19924;-75
2022/03/21 00:30:45;;;;;;;;;;;4.70;99.90;;;;;;5114165;28;19938;-75
2022/03/21 00:33:13;;;;;;;;;;;4.50;99.90;;;;;;5104872;28;19928;-75
2022/03/21 00:35:42;;;;;;;;;;;4.50;99.90;;;;;;5093959;28;19925;-75
2022/03/21 00:38:14;;;;;;;;;;;4.40;99.90;;;;;;5101112;28;20390;-74
2022/03/21 00:40:41;;;;;;;;;;;4.40;99.90;;;;;;5111052;28;19924;-75
2022/03/21 00:43:08;;;;;;;;;;;4.30;99.90;;;;;;5078212;28;19942;-75
2022/03/21 00:45:40;;;;;;;;;;;4.20;99.90;;;;;;5102675;28;20014;-75
2022/03/21 00:48:06;;;;;;;;;;;4.20;99.90;;;;;;5109871;28;20395;-75
2022/03/21 00:50:34;;;;;;;;;;;4.20;99.90;;;;;;5095200;28;19959;-75
2022/03/21 00:53:01;;;;;;;;;;;4.20;99.90;;;;;;5098515;28;20007;-75
2022/03/21 00:55:29;;;;;;;;;;;4.20;99.90;;;;;;5096245;28;19924;-75
2022/03/21 00:57:56;;;;;;;;;;;4.20;99.90;;;;;;5112021;28;19928;-75
2022/03/21 01:00:25;;;;;;;;;;;4.10;99.90;;;;;;5083089;28;19974;-75
2022/03/21 01:02:52;;;;;;;;;;;4.00;99.90;;;;;;5109081;28;19974;-75
2022/03/21 01:05:19;;;;;;;;;;;3.90;99.90;;;;;;5093034;28;20054;-75
2022/03/21 01:07:46;;;;;;;;;;;3.90;99.90;;;;;;5092967;28;19928;-75
2022/03/21 01:10:14;;;;;;;;;;;3.90;99.90;;;;;;5093590;28;20014;-75
2022/03/21 01:12:41;;;;;;;;;;;3.90;99.90;;;;;;5093157;28;20362;-75
2022/03/21 01:15:08;;;;;;;;;;;3.80;99.90;;;;;;5101633;28;20452;-75
2022/03/21 01:17:35;;;;;;;;;;;3.80;99.90;;;;;;5098421;28;19923;-75
2022/03/21 01:20:03;;;;;;;;;;;3.70;99.90;;;;;;5095886;28;19970;-75
2022/03/21 01:22:30;;;;;;;;;;;3.70;99.90;;;;;;5108440;28;19978;-75
2022/03/21 01:24:59;;;;;;;;;;;3.70;99.90;;;;;;5102712;28;19924;-75
2022/03/21 01:27:26;;;;;;;;;;;3.70;99.90;;;;;;5104268;28;19934;-75
2022/03/21 01:29:53;;;;;;;;;;;3.70;99.90;;;;;;5112864;28;20303;-75
2022/03/21 01:32:20;;;;;;;;;;;3.70;99.90;;;;;;5092863;28;19928;-76
2022/03/21 01:34:49;;;;;;;;;;;3.60;99.90;;;;;;5092452;28;20140;-76
2022/03/21 01:37:16;;;;;;;;;;;3.60;99.90;;;;;;5092531;28;20290;-75
2022/03/21 01:39:43;;;;;;;;;;;3.50;99.90;;;;;;5093671;28;19924;-75
2022/03/21 01:42:10;;;;;;;;;;;3.40;99.90;;;;;;5094434;28;19963;-76
2022/03/21 01:44:39;;;;;;;;;;;3.40;99.90;;;;;;5112793;28;19924;-75
2022/03/21 01:47:09;;;;;;;;;;;3.40;99.90;;;;;;5108621;28;19924;-75
2022/03/21 01:49:36;;;;;;;;;;;3.40;99.90;;;;;;5104379;28;19930;-75
2022/03/21 01:52:03;;;;;;;;;;;3.40;99.90;;;;;;5103959;28;19928;-75
2022/03/21 01:57:30;;;;;;;;;;;3.40;99.90;;;;;;5053970;28;19987;-76
2022/03/21 01:59:57;;;;;;;;;;;3.30;99.90;;;;;;5108330;28;19955;-75
2022/03/21 02:02:23;;;;;;;;;;;3.30;99.90;;;;;;5111317;28;20373;-75
2022/03/21 02:04:50;;;;;;;;;;;3.20;99.90;;;;;;5108841;28;19930;-76
2022/03/21 02:07:17;;;;;;;;;;;3.10;99.90;;;;;;5092409;28;19924;-75
2022/03/21 02:09:44;;;;;;;;;;;3.00;99.90;;;;;;5075573;28;19963;-75
2022/03/21 02:12:10;;;;;;;;;;;3.00;99.90;;;;;;5111682;28;19974;-75
2022/03/21 02:14:39;;;;;;;;;;;2.90;99.90;;;;;;5111399;28;19987;-76
2022/03/21 02:17:06;;;;;;;;;;;2.80;99.90;;;;;;5097431;28;19994;-76
2022/03/21 02:19:34;;;;;;;;;;;2.80;99.90;;;;;;5101216;28;19930;-75
2022/03/21 02:22:15;;;;;;;;;;;2.80;99.90;;;;;;5074679;28;20528;-76
2022/03/21 02:24:49;;;;;;;;;;;2.90;99.90;;;;;;5110205;28;19923;-75
2022/03/21 02:27:16;;;;;;;;;;;2.90;99.90;;;;;;5102313;28;19923;-75
2022/03/21 02:29:48;;;;;;;;;;;3.00;99.90;;;;;;5096991;28;20386;-75
2022/03/21 02:32:15;;;;;;;;;;;3.00;99.90;;;;;;5078741;28;19989;-75
2022/03/21 02:34:44;;;;;;;;;;;3.00;99.90;;;;;;5103800;28;20398;-75
2022/03/21 02:37:14;;;;;;;;;;;3.00;99.90;;;;;;5091593;28;19924;-76
2022/03/21 02:39:42;;;;;;;;;;;2.90;99.90;;;;;;5088808;28;20006;-76
2022/03/21 02:42:09;;;;;;;;;;;2.90;99.90;;;;;;5092649;28;20015;-75
2022/03/21 02:44:37;;;;;;;;;;;2.90;99.90;;;;;;5105348;28;20338;-76
2022/03/21 02:47:04;;;;;;;;;;;2.80;99.90;;;;;;5103295;28;19971;-75
2022/03/21 02:49:33;;;;;;;;;;;2.80;99.90;;;;;;5102136;28;20010;-76
2022/03/21 02:52:02;;;;;;;;;;;2.70;99.90;;;;;;5103197;28;19924;-75
2022/03/21 02:54:28;;;;;;;;;;;2.80;99.90;;;;;;5111125;28;20014;-75
2022/03/21 02:56:55;;;;;;;;;;;2.80;99.90;;;;;;5103634;28;21005;-75
2022/03/21 02:59:22;;;;;;;;;;;2.80;99.90;;;;;;5104569;28;19971;-75
2022/03/21 03:01:53;;;;;;;;;;;2.80;99.90;;;;;;5091726;28;20018;-76
2022/03/21 03:04:24;;;;;;;;;;;2.90;99.90;;;;;;5081501;28;19931;-76
2022/03/21 03:06:51;;;;;;;;;;;2.90;99.90;;;;;;5094878;28;19924;-75
2022/03/21 03:09:18;;;;;;;;;;;2.90;99.90;;;;;;5095758;28;19964;-76
2022/03/21 03:11:44;;;;;;;;;;;3.00;99.90;;;;;;5104254;28;19924;-75
2022/03/21 03:14:11;;;;;;;;;;;3.10;99.90;;;;;;5094955;28;19977;-76
2022/03/21 03:16:38;;;;;;;;;;;3.10;99.90;;;;;;5103981;28;20595;-75
2022/03/21 03:19:11;;;;;;;;;;;3.10;99.90;;;;;;5096064;28;19931;-75
2022/03/21 03:21:39;;;;;;;;;;;3.10;99.90;;;;;;5096302;28;19924;-75
2022/03/21 03:24:08;;;;;;;;;;;3.10;99.90;;;;;;5105147;28;19924;-75
2022/03/21 03:26:38;;;;;;;;;;;3.20;99.90;;;;;;5115534;28;19924;-75
2022/03/21 03:29:05;;;;;;;;;;;3.20;99.90;;;;;;5098430;28;19924;-76
2022/03/21 03:31:35;;;;;;;;;;;3.20;99.90;;;;;;5094852;28;19924;-76
2022/03/21 03:34:03;;;;;;;;;;;3.10;99.90;;;;;;5102104;28;19931;-75
2022/03/21 03:36:29;;;;;;;;;;;3.00;99.90;;;;;;5084606;28;20001;-75
2022/03/21 03:38:56;;;;;;;;;;;2.90;99.90;;;;;;5110333;28;19923;-75
2022/03/21 03:41:23;;;;;;;;;;;2.80;99.90;;;;;;5094792;28;19924;-75
2022/03/21 03:43:50;;;;;;;;;;;2.80;99.90;;;;;;5094903;28;20014;-75
2022/03/21 03:46:17;;;;;;;;;;;2.80;99.90;;;;;;5095248;28;19931;-75
2022/03/21 03:48:44;;;;;;;;;;;2.70;99.90;;;;;;5093686;28;19923;-75
2022/03/21 03:51:11;;;;;;;;;;;2.70;99.90;;;;;;5103288;28;19924;-75
2022/03/21 03:53:38;;;;;;;;;;;2.60;99.90;;;;;;5100263;28;19923;-75
2022/03/21 03:56:06;;;;;;;;;;;2.60;99.90;;;;;;5102250;28;19976;-76
2022/03/21 03:58:33;;;;;;;;;;;2.60;99.90;;;;;;5104739;28;19997;-75
2022/03/21 04:01:00;;;;;;;;;;;2.60;99.90;;;;;;5095470;28;20019;-75
2022/03/21 04:03:45;;;;;;;;;;;2.60;99.90;;;;;;5093929;28;19924;-75
2022/03/21 04:06:12;;;;;;;;;;;2.50;99.90;;;;;;5094274;28;20019;-75
2022/03/21 04:08:39;;;;;;;;;;;2.60;99.90;;;;;;5093832;28;19924;-75
2022/03/21 04:11:12;;;;;;;;;;;2.60;99.90;;;;;;5094141;28;19930;-75
2022/03/21 04:13:39;;;;;;;;;;;2.60;99.90;;;;;;5094007;28;19968;-75
2022/03/21 04:16:06;;;;;;;;;;;2.60;99.90;;;;;;5109031;28;19924;-74
2022/03/21 04:18:33;;;;;;;;;;;2.50;99.90;;;;;;5109863;28;19924;-75
2022/03/21 04:21:20;;;;;;;;;;;2.40;99.90;;;;;;5094432;28;19928;-75
2022/03/21 04:23:47;;;;;;;;;;;2.40;99.90;;;;;;5094602;28;20011;-75
2022/03/21 04:26:16;;;;;;;;;;;2.40;99.90;;;;;;5093394;28;19928;-75
2022/03/21 04:28:43;;;;;;;;;;;2.50;99.90;;;;;;5093530;28;19928;-75
2022/03/21 04:31:10;;;;;;;;;;;2.40;99.90;;;;;;5107312;28;20296;-75
2022/03/21 04:33:36;;;;;;;;;;;2.40;99.90;;;;;;5092334;28;19923;-75
2022/03/21 04:36:03;;;;;;;;;;;2.40;99.90;;;;;;5092815;28;19951;-74
2022/03/21 04:38:30;;;;;;;;;;;2.40;99.90;;;;;;5106557;28;19924;-74
2022/03/21 04:40:57;;;;;;;;;;;2.30;99.90;;;;;;5093816;28;20026;-76
2022/03/21 04:43:26;;;;;;;;;;;2.30;99.90;;;;;;5097950;28;20018;-75
2022/03/21 04:45:53;;;;;;;;;;;2.20;99.90;;;;;;5108297;28;20387;-75
2022/03/21 04:48:20;;;;;;;;;;;2.10;99.90;;;;;;5100043;28;20031;-75
2022/03/21 04:50:47;;;;;;;;;;;2.10;99.90;;;;;;5101190;28;20026;-75
2022/03/21 04:53:14;;;;;;;;;;;2.00;99.90;;;;;;5107401;28;19923;-75
2022/03/21 04:55:41;;;;;;;;;;;1.90;99.90;;;;;;5093218;28;20309;-75
2022/03/21 04:58:08;;;;;;;;;;;1.90;99.90;;;;;;5092503;28;20010;-75
2022/03/21 05:00:37;;;;;;;;;;;1.80;99.90;;;;;;5092436;28;19971;-75
2022/03/21 05:03:07;;;;;;;;;;;1.80;99.90;;;;;;5093619;28;19924;-76
2022/03/21 05:05:43;;;;;;;;;;;1.80;99.90;;;;;;5093046;28;19924;-75
2022/03/21 05:08:10;;;;;;;;;;;1.80;99.90;;;;;;5097649;28;20579;-74
2022/03/21 05:10:36;;;;;;;;;;;1.80;99.90;;;;;;5102770;28;19930;-74
2022/03/21 05:13:03;;;;;;;;;;;1.80;99.90;;;;;;5093444;28;19924;-75
2022/03/21 05:15:31;;;;;;;;;;;1.80;99.90;;;;;;5074778;28;20266;-75
2022/03/21 05:17:58;;;;;;;;;;;1.70;99.90;;;;;;5082948;28;19924;-74
2022/03/21 05:20:27;;;;;;;;;;;1.70;99.90;;;;;;5093849;28;19967;-75
2022/03/21 05:31:10;;;;;;;;;;;1.80;99.90;;;;;;5105654;28;19928;-75
2022/03/21 05:36:28;;;;;;;;;;;1.80;99.90;;;;;;5097838;28;20582;-75
2022/03/21 05:38:55;;;;;;;;;;;1.80;99.90;;;;;;5092403;28;19924;-75
2022/03/21 05:41:22;;;;;;;;;;;1.80;99.90;;;;;;5092483;28;20011;-75
2022/03/21 05:43:49;;;;;;;;;;;1.80;99.90;;;;;;5098257;28;19923;-75
2022/03/21 05:46:17;;;;;;;;;;;1.80;99.90;;;;;;5110950;28;20382;-74
2022/03/21 05:49:02;;;;;;;;;;;1.80;99.90;;;;;;5097189;28;20007;-75
2022/03/21 05:51:47;;;;;;;;;;;1.80;99.90;;;;;;5092673;28;20389;-75
2022/03/21 05:54:13;;;;;;;;;;;1.90;99.90;;;;;;5092165;28;19985;-75
2022/03/21 05:56:41;;;;;;;;;;;2.00;99.90;;;;;;5092076;28;19935;-75
2022/03/21 06:01:53;;;;;;;;;;;2.20;99.90;;;;;;5092789;28;20380;-74
2022/03/21 06:04:23;;;;;;;;;;;2.40;99.90;;;;;;5092356;28;19930;-75
2022/03/21 06:06:50;;;;;;;;;;;2.60;99.90;;;;;;5092642;28;19975;-75
2022/03/21 06:09:17;;;;;;;;;;;2.70;99.90;;;;;;5092322;28;20010;-76
2022/03/21 06:11:48;;;;;;;;;;;2.90;99.90;;;;;;5110371;28;19928;-74
2022/03/21 06:14:18;;;;;;;;;;;3.00;99.90;;;;;;5100304;28;19924;-75
2022/03/21 06:16:45;;;;;;;;;;;3.20;99.90;;;;;;5090884;28;19939;-75
2022/03/21 06:19:12;;;;;;;;;;;3.30;99.90;;;;;;5091593;28;19928;-75
2022/03/21 06:21:39;;;;;;;;;;;3.50;99.90;;;;;;5093476;28;19924;-75
2022/03/21 06:24:08;;;;;;;;;;;3.60;99.90;;;;;;5096007;28;20042;-74
2022/03/21 06:26:34;;;;;;;;;;;3.80;99.90;;;;;;5108996;28;19975;-75
2022/03/21 06:29:01;;;;;;;;;;;4.00;99.90;;;;;;5095402;28;19924;-75
2022/03/21 06:31:28;;;;;;;;;;;4.30;99.90;;;;;;5095321;28;19924;-75
2022/03/21 06:33:54;;;;;;;;;;;4.60;99.90;;;;;;5104329;28;19924;-75
2022/03/21 06:36:24;;;;;;;;;;;5.00;99.90;;;;;;5109891;28;19930;-75
2022/03/21 06:38:51;;;;;;;;;;;5.30;99.90;;;;;;5104864;28;19932;-75
2022/03/21 06:41:17;;;;;;;;;;;5.80;99.90;;;;;;5099582;28;19924;-75
2022/03/21 06:43:46;;;;;;;;;;;6.40;99.90;;;;;;5093443;28;19924;-75
2022/03/21 06:46:13;;;;;;;;;;;6.80;99.90;;;;;;5095438;28;20303;-76
2022/03/21 06:48:40;;;;;;;;;;;7.40;99.90;;;;;;5109013;28;19935;-76
2022/03/21 06:51:06;;;;;;;;;;;7.70;99.90;;;;;;5103928;28;19932;-76
2022/03/21 06:53:33;;;;;;;;;;;8.10;99.90;;;;;;5095022;28;19970;-76
2022/03/21 06:56:00;;;;;;;;;;;8.60;99.90;;;;;;5102452;28;19924;-76
2022/03/21 06:58:26;;;;;;;;;;;9.00;99.90;;;;;;5094265;28;20011;-76
2022/03/21 07:00:53;;;;;;;;;;;9.40;99.90;;;;;;5094498;28;19924;-76
2022/03/21 07:03:20;;;;;;;;;;;9.40;99.90;;;;;;5104134;28;20018;-76
2022/03/21 07:05:47;;;;;;;;;;;9.70;99.90;;;;;;5111200;28;19931;-76
2022/03/21 07:08:14;;;;;;;;;;;10.00;99.20;;;;;;5099715;28;19937;-76
2022/03/21 07:10:41;;;;;;;;;;;10.40;98.70;;;;;;5109976;28;19963;-76
2022/03/21 07:13:08;;;;;;;;;;;10.60;98.00;;;;;;5112757;28;19977;-76
2022/03/21 07:15:34;;;;;;;;;;;10.80;98.30;;;;;;5084690;28;19931;-76
2022/03/21 07:18:01;;;;;;;;;;;10.80;97.20;;;;;;5087128;28;19924;-76
2022/03/21 07:20:28;;;;;;;;;;;10.90;97.10;;;;;;5109481;28;19924;-76
2022/03/21 07:22:56;;;;;;;;;;;11.00;98.00;;;;;;5093877;28;19924;-76
2022/03/21 07:25:23;;;;;;;;;;;11.20;97.20;;;;;;5093809;28;19924;-76
2022/03/21 07:27:52;;;;;;;;;;;11.40;96.90;;;;;;5093776;28;19925;-76
2022/03/21 07:30:19;;;;;;;;;;;11.70;97.10;;;;;;5093540;28;20348;-76
2022/03/21 07:32:46;;;;;;;;;;;12.00;97.00;;;;;;5108728;28;19943;-77
2022/03/21 07:35:13;;;;;;;;;;;12.10;96.10;;;;;;5101571;28;19924;-76
2022/03/21 07:37:40;;;;;;;;;;;11.90;96.00;;;;;;5108259;28;20328;-76
2022/03/21 07:40:10;;;;;;;;;;;11.90;95.60;;;;;;5090218;28;19931;-76
2022/03/21 07:42:38;;;;;;;;;;;11.80;95.80;;;;;;5079786;28;20294;-75
2022/03/21 07:47:57;;;;;;;;;;;11.60;95.50;;;;;;5093273;28;19935;-75
2022/03/21 07:50:24;;;;;;;;;;;11.80;95.50;;;;;;5099961;28;19923;-75
2022/03/21 07:52:51;;;;;;;;;;;11.90;95.20;;;;;;5100832;28;20295;-75
2022/03/21 07:55:19;;;;;;;;;;;12.30;95.20;;;;;;5099360;28;20011;-75
2022/03/21 07:57:46;;;;;;;;;;;12.30;95.00;;;;;;5101465;28;19938;-75
2022/03/21 08:00:13;;;;;;;;;;;12.50;95.30;;;;;;5100939;28;20018;-76
2022/03/21 08:02:41;;;;;;;;;;;12.80;94.50;;;;;;5093940;28;20007;-75
2022/03/21 08:05:09;;;;;;;;;;;12.80;94.70;;;;;;5093706;28;20321;-76
2022/03/21 08:07:36;;;;;;;;;;;13.30;95.20;;;;;;5090842;28;19924;-76
2022/03/21 08:10:03;;;;;;;;;;;13.60;93.80;;;;;;5092644;28;20409;-76
2022/03/21 08:12:42;;;;;;;;;;;13.30;94.20;;;;;;5095174;28;19973;-76
2022/03/21 08:15:11;;;;;;;;;;;13.60;94.70;;;;;;5093125;28;20321;-75
2022/03/21 08:17:56;;;;;;;;;;;13.60;94.00;;;;;;5093408;28;19931;-76
2022/03/21 08:20:23;;;;;;;;;;;13.80;94.00;;;;;;5096901;28;19924;-76
2022/03/21 08:22:52;;;;;;;;;;;13.70;93.30;;;;;;5092988;28;20375;-75
2022/03/21 08:25:20;;;;;;;;;;;13.40;93.50;;;;;;5093472;28;20011;-76
2022/03/21 08:27:47;;;;;;;;;;;13.70;94.40;;;;;;5094958;28;19989;-76
2022/03/21 08:30:15;;;;;;;;;;;14.30;94.20;;;;;;5104433;28;20466;-76
2022/03/21 08:32:44;;;;;;;;;;;14.70;93.70;;;;;;5103074;28;20309;-76
2022/03/21 08:35:11;;;;;;;;;;;15.10;93.30;;;;;;5108879;28;19941;-76
2022/03/21 08:37:41;;;;;;;;;;;15.30;93.60;;;;;;5090179;28;19931;-75
2022/03/21 08:40:10;;;;;;;;;;;15.80;93.40;;;;;;5098221;28;20212;-76
2022/03/21 08:42:37;;;;;;;;;;;15.80;92.60;;;;;;5091599;28;19988;-76
2022/03/21 08:45:06;;;;;;;;;;;16.20;92.10;;;;;;5103877;28;19924;-75
2022/03/21 08:47:34;;;;;;;;;;;16.40;91.70;;;;;;5107028;28;19924;-75
2022/03/21 08:50:02;;;;;;;;;;;15.80;91.90;;;;;;5093030;28;19924;-76
2022/03/21 08:52:29;;;;;;;;;;;15.40;92.10;;;;;;5100643;28;19998;-75
2022/03/21 08:54:56;;;;;;;;;;;15.60;91.90;;;;;;5085777;28;19924;-75
2022/03/21 08:57:23;;;;;;;;;;;15.60;92.10;;;;;;5091517;28;20024;-75
2022/03/21 08:59:52;;;;;;;;;;;15.40;92.20;;;;;;5091706;28;19924;-75
2022/03/21 09:02:19;;;;;;;;;;;15.60;93.10;;;;;;5096699;28;19931;-76
2022/03/21 09:04:45;;;;;;;;;;;15.10;91.90;;;;;;5109682;28;19928;-75
2022/03/21 09:07:13;;;;;;;;;;;15.40;92.50;;;;;;5103236;28;19930;-76
2022/03/21 09:09:40;;;;;;;;;;;15.30;92.20;;;;;;5102349;28;20441;-76
2022/03/21 09:12:07;;;;;;;;;;;15.60;93.10;;;;;;5100392;28;19924;-76
2022/03/21 09:14:34;;;;;;;;;;;16.10;92.70;;;;;;5092381;28;20007;-75
2022/03/21 09:17:01;;;;;;;;;;;16.70;93.30;;;;;;5109952;28;19923;-74
2022/03/21 09:19:29;;;;;;;;;;;17.10;92.60;;;;;;5109290;28;20010;-75
2022/03/21 09:21:56;;;;;;;;;;;17.40;91.60;;;;;;5111491;28;19945;-74
2022/03/21 09:24:24;;;;;;;;;;;17.70;91.50;;;;;;5108091;28;20388;-75
2022/03/21 09:26:50;;;;;;;;;;;17.90;91.10;;;;;;5091814;28;20336;-75
2022/03/21 09:29:17;;;;;;;;;;;17.60;90.90;;;;;;5092044;28;19967;-75
2022/03/21 09:31:44;;;;;;;;;;;17.70;91.80;;;;;;5100833;28;20011;-75
2022/03/21 09:34:12;;;;;;;;;;;18.00;91.20;;;;;;5080616;28;19928;-75
2022/03/21 09:36:39;;;;;;;;;;;18.30;91.30;;;;;;5105944;28;20018;-75
2022/03/21 09:39:08;;;;;;;;;;;18.30;90.40;;;;;;5106907;28;19947;-74
2022/03/21 09:41:36;;;;;;;;;;;18.00;91.30;;;;;;5105559;28;19947;-75
2022/03/21 09:44:07;;;;;;;;;;;18.10;90.80;;;;;;5093764;28;20455;-75
2022/03/21 09:46:34;;;;;;;;;;;18.60;90.90;;;;;;5111444;28;19923;-76
2022/03/21 09:49:02;;;;;;;;;;;19.10;90.90;;;;;;5088954;28;20414;-75
2022/03/21 09:51:30;;;;;;;;;;;19.70;91.00;;;;;;5086198;28;20366;-76
2022/03/21 09:53:57;;;;;;;;;;;19.90;89.80;;;;;;5108079;28;19924;-75
2022/03/21 09:56:24;;;;;;;;;;;19.70;90.30;;;;;;5093923;28;20043;-67
2022/03/21 09:58:58;;;;;;;;;;;19.00;87.80;;;;;;5101647;28;19963;-67
2022/03/21 10:01:25;;;;;;;;;;;18.90;89.20;;;;;;5101617;28;20007;-67
2022/03/21 10:03:52;;;;;;;;;;;19.00;89.10;;;;;;5103367;28;19931;-66
2022/03/21 10:06:28;;;;;;;;;;;18.60;88.70;;;;;;5094756;28;19932;-66
2022/03/21 10:09:05;;;;;;;;;;;19.10;89.10;;;;;;5081377;28;19924;-67
2022/03/21 10:11:32;;;;;;;;;;;19.60;89.40;;;;;;5098776;27;20015;-66
2022/03/21 10:14:18;;;;;;;;;;;19.30;86.30;;;;;;5105259;28;20536;-66
2022/03/21 10:16:52;;;;;;;;;;;19.70;87.70;;;;;;5104965;28;20393;-66
2022/03/21 10:19:19;;;;;;;;;;;20.10;86.50;;;;;;5109182;28;19947;-66
2022/03/21 10:22:02;;;;;;;;;;;20.50;87.50;;;;;;5111558;28;19943;-66
2022/03/21 10:24:33;;;;;;;;;;;20.40;87.80;;;;;;5108092;28;19976;-66
2022/03/21 10:27:00;;;;;;;;;;;20.20;87.40;;;;;;5109490;28;20046;-66
2022/03/21 10:29:27;;;;;;;;;;;20.10;86.70;;;;;;5094649;28;19923;-66
2022/03/21 10:31:53;;;;;;;;;;;20.60;87.30;;;;;;5094719;28;20402;-66
2022/03/21 10:34:21;;;;;;;;;;;21.20;86.80;;;;;;5113627;28;19924;-67
2022/03/21 10:37:04;;;;;;;;;;;21.50;85.40;;;;;;5111453;28;19966;-66
2022/03/21 10:39:32;;;;;;;;;;;21.50;86.30;;;;;;5101855;28;19954;-66
2022/03/21 10:42:00;;;;;;;;;;;21.90;84.80;;;;;;5098555;28;20416;-66
2022/03/21 10:44:27;;;;;;;;;;;22.50;85.00;;;;;;5095819;28;19924;-66
2022/03/21 10:46:55;;;;;;;;;;;23.20;85.70;;;;;;5093816;28;19928;-66
2022/03/21 10:49:35;;;;;;;;;;;23.20;83.90;;;;;;5094658;28;20002;-66
2022/03/21 10:52:02;;;;;;;;;;;23.40;86.80;;;;;;5098325;28;19924;-65
2022/03/21 10:54:51;;;;;;;;;;;23.60;83.70;;;;;;5111109;28;20448;-66
2022/03/21 10:57:31;;;;;;;;;;;23.90;82.50;;;;;;5105470;28;19931;-66
2022/03/21 11:00:16;;;;;;;;;;;23.80;83.20;;;;;;5098418;28;19924;-66
2022/03/21 11:02:58;;;;;;;;;;;24.00;84.10;;;;;;5096736;28;19924;-66
2022/03/21 11:05:26;;;;;;;;;;;24.10;83.20;;;;;;5097883;28;20409;-66
2022/03/21 11:07:55;;;;;;;;;;;24.00;82.20;;;;;;5106270;28;20002;-66
2022/03/21 11:10:23;;;;;;;;;;;23.80;83.50;;;;;;5093717;28;20019;-65
2022/03/21 11:12:50;;;;;;;;;;;24.10;82.40;;;;;;5093766;28;20393;-66
2022/03/21 11:15:16;;;;;;;;;;;24.20;82.80;;;;;;5093355;28;20007;-66
2022/03/21 11:17:43;;;;;;;;;;;23.80;81.90;;;;;;5101961;28;19955;-66
2022/03/21 11:20:11;;;;;;;;;;;22.90;82.20;;;;;;5094639;28;19924;-66
2022/03/21 11:22:39;;;;;;;;;;;23.00;85.40;;;;;;5106220;28;19930;-66
2022/03/21 11:25:07;;;;;;;;;;;23.00;83.90;;;;;;5110728;28;19967;-66
2022/03/21 11:27:37;;;;;;;;;;;22.30;82.10;;;;;;5112402;28;19923;-65
2022/03/21 11:30:13;;;;;;;;;;;22.70;82.50;;;;;;5103501;28;19924;-66
2022/03/21 11:32:42;;;;;;;;;;;23.20;82.60;;;;;;5108477;28;19923;-66
2022/03/21 11:35:19;;;;;;;;;;;24.10;82.00;;;;;;5092952;28;19930;-66
2022/03/21 11:37:45;;;;;;;;;;;24.50;81.70;;;;;;5093041;28;20331;-66
2022/03/21 11:40:26;;;;;;;;;;;24.10;82.30;;;;;;5092977;28;19968;-66
2022/03/21 11:42:55;;;;;;;;;;;23.20;81.50;;;;;;5093255;28;19924;-66
2022/03/21 11:45:33;;;;;;;;;;;23.10;83.90;;;;;;5107279;28;19930;-66
2022/03/21 11:48:18;;;;;;;;;;;22.30;82.60;;;;;;5100380;28;19938;-66
2022/03/21 11:50:49;;;;;;;;;;;22.80;82.70;;;;;;5107363;28;19976;-66
2022/03/21 11:53:26;;;;;;;;;;;23.50;82.70;;;;;;5111773;28;20010;-66
2022/03/21 11:55:53;;;;;;;;;;;24.10;83.00;;;;;;5112036;28;19924;-66
2022/03/21 11:58:37;;;;;;;;;;;24.50;83.50;;;;;;5108420;28;19971;-66
2022/03/21 12:01:12;;;;;;;;;;;24.10;81.80;;;;;;5099157;28;19927;-66
2022/03/21 12:03:43;;;;;;;;;;;23.30;82.10;;;;;;5100727;28;19931;-66
2022/03/21 12:06:19;;;;;;;;;;;23.50;83.10;;;;;;5104790;28;19923;-66
2022/03/21 12:08:48;;;;;;;;;;;23.30;83.50;;;;;;5109916;28;19951;-66
2022/03/21 12:11:36;;;;;;;;;;;23.70;84.20;;;;;;5077755;28;19930;-66
2022/03/21 12:14:19;;;;;;;;;;;23.50;83.00;;;;;;5106142;28;20482;-66
2022/03/21 12:16:46;;;;;;;;;;;23.20;83.70;;;;;;5092489;28;20015;-66
2022/03/21 12:19:12;;;;;;;;;;;23.20;84.60;;;;;;5095029;28;20420;-66
2022/03/21 12:21:39;;;;;;;;;;;22.70;84.30;;;;;;5108764;28;20375;-66
2022/03/21 12:24:16;;;;;;;;;;;22.50;85.30;;;;;;5093699;28;20357;-66
2022/03/21 12:26:53;;;;;;;;;;;21.70;85.40;;;;;;5096255;28;19934;-66
2022/03/21 12:29:32;;;;;;;;;;;22.00;85.90;;;;;;5079864;28;19973;-66
2022/03/21 12:32:17;;;;;;;;;;;21.90;86.20;;;;;;5091811;28;20015;-66
2022/03/21 12:34:44;;;;;;;;;;;21.90;85.50;;;;;;5106230;28;20353;-66
2022/03/21 12:37:38;;;;;;;;;;;21.40;86.30;;;;;;5082181;28;19923;-65
2022/03/21 12:40:08;;;;;;;;;;;21.00;86.30;;;;;;5104915;28;20327;-66
2022/03/21 12:42:35;;;;;;;;;;;20.80;87.20;;;;;;5094457;28;19963;-66
2022/03/21 12:45:02;;;;;;;;;;;21.50;87.90;;;;;;5110617;28;20019;-66
2022/03/21 12:47:29;;;;;;;;;;;21.80;86.50;;;;;;5093169;28;20104;-66
2022/03/21 12:49:55;;;;;;;;;;;21.80;85.90;;;;;;5091651;28;19928;-66
2022/03/21 12:52:29;;;;;;;;;;;22.10;86.80;;;;;;5091996;28;19967;-66
2022/03/21 12:54:57;;;;;;;;;;;22.30;86.20;;;;;;5105432;28;19923;-67
2022/03/21 12:57:27;;;;;;;;;;;21.80;86.60;;;;;;5093271;28;19924;-66
2022/03/21 13:00:13;;;;;;;;;;;21.60;86.10;;;;;;5110089;28;19924;-66
2022/03/21 13:02:40;;;;;;;;;;;21.20;87.00;;;;;;5093296;28;19928;-67
2022/03/21 13:10:43;;;;;;;;;;;21.70;87.40;;;;;;5094050;28;19928;-67
2022/03/21 13:13:10;;;;;;;;;;;22.30;86.50;;;;;;5073788;28;19928;-66
2022/03/21 13:15:36;;;;;;;;;;;23.20;86.00;;;;;;5091666;28;19924;-66
2022/03/21 13:18:06;;;;;;;;;;;23.70;85.10;;;;;;5092499;28;20800;-66
2022/03/21 13:20:34;;;;;;;;;;;24.00;84.70;;;;;;5097112;28;19930;-67
2022/03/21 13:23:02;;;;;;;;;;;24.00;84.80;;;;;;5104629;28;20401;-66
2022/03/21 13:25:34;;;;;;;;;;;23.70;84.30;;;;;;5093202;28;19923;-66
2022/03/21 13:28:07;;;;;;;;;;;23.70;84.70;;;;;;5100401;28;19971;-66
2022/03/21 13:30:34;;;;;;;;;;;23.40;85.40;;;;;;5104020;28;20301;-67
2022/03/21 13:33:03;;;;;;;;;;;22.90;85.00;;;;;;5091158;28;19928;-66
2022/03/21 13:35:50;;;;;;;;;;;23.80;85.90;;;;;;5091360;28;19928;-66
2022/03/21 13:38:23;;;;;;;;;;;24.70;84.00;;;;;;5091011;28;19931;-66
2022/03/21 13:40:50;;;;;;;;;;;25.30;83.70;;;;;;5090899;28;19924;-66
2022/03/21 13:43:25;;;;;;;;;;;25.10;83.60;;;;;;5105374;28;20529;-66
2022/03/21 13:45:54;;;;;;;;;;;24.20;83.20;;;;;;5091149;28;20023;-66
2022/03/21 13:48:44;;;;;;;;;;;23.50;83.90;;;;;;5090297;28;19982;-66
2022/03/21 13:51:29;;;;;;;;;;;23.10;84.00;;;;;;5087016;28;19930;-66
2022/03/21 13:54:09;;;;;;;;;;;22.80;85.30;;;;;;5092274;28;19924;-66
2022/03/21 13:56:37;;;;;;;;;;;22.60;85.90;;;;;;5086117;28;20377;-66
2022/03/21 13:59:11;;;;;;;;;;;23.10;86.30;;;;;;5099652;28;19924;-66
2022/03/21 14:01:41;;;;;;;;;;;23.70;85.80;;;;;;5102704;28;19924;-66
2022/03/21 14:04:28;;;;;;;;;;;24.10;85.70;;;;;;5100449;28;19934;-66
2022/03/21 14:07:02;;;;;;;;;;;24.30;83.80;;;;;;5092295;28;20038;-66
2022/03/21 14:09:30;;;;;;;;;;;24.90;84.40;;;;;;5102400;28;19927;-66
2022/03/21 14:12:07;;;;;;;;;;;25.40;83.00;;;;;;5090536;28;19924;-66
2022/03/21 14:14:34;;;;;;;;;;;25.00;84.20;;;;;;5096762;28;19977;-66
2022/03/21 14:17:04;;;;;;;;;;;25.20;83.80;;;;;;5098384;28;20310;-66
2022/03/21 14:19:32;;;;;;;;;;;24.80;83.60;;;;;;5097042;28;19924;-66
2022/03/21 14:21:58;;;;;;;;;;;24.70;83.80;;;;;;5109094;28;19926;-66
2022/03/21 14:24:25;;;;;;;;;;;24.60;84.00;;;;;;5108868;28;19924;-66
2022/03/21 14:26:52;;;;;;;;;;;24.90;82.80;;;;;;5094158;28;19928;-66
2022/03/21 14:29:18;;;;;;;;;;;24.80;84.70;;;;;;5108751;28;19930;-65
2022/03/21 14:31:45;;;;;;;;;;;24.60;83.90;;;;;;5095408;28;19934;-66
2022/03/21 14:34:14;;;;;;;;;;;23.90;83.00;;;;;;5098211;28;19928;-65
2022/03/21 14:36:44;;;;;;;;;;;22.80;84.50;;;;;;5097159;28;20310;-66
2022/03/21 14:39:11;;;;;;;;;;;22.30;84.80;;;;;;5096970;28;19928;-66
2022/03/21 14:41:38;;;;;;;;;;;22.10;86.10;;;;;;5091169;28;19967;-66
2022/03/21 14:44:05;;;;;;;;;;;21.50;85.60;;;;;;5112985;28;20328;-66
2022/03/21 14:46:36;;;;;;;;;;;20.90;85.60;;;;;;5096119;28;19924;-66
2022/03/21 14:49:02;;;;;;;;;;;20.10;87.20;;;;;;5094165;28;19950;-66
2022/03/21 14:51:34;;;;;;;;;;;19.60;87.60;;;;;;5102022;28;19946;-66
2022/03/21 14:54:01;;;;;;;;;;;19.00;88.30;;;;;;5093830;28;20282;-66
2022/03/21 14:56:28;;;;;;;;;;;18.60;88.40;;;;;;5094317;28;19924;-66
2022/03/21 14:58:58;;;;;;;;;;;18.40;89.80;;;;;;5094127;28;19924;-66
2022/03/21 15:01:26;;;;;;;;;;;18.20;90.20;;;;;;5109338;28;20449;-66